Time;durP1;ratioP1;P1;durP2;ratioP2;P2;SDS_P1;SDS_P2;PMS_P1;PMS_P2;Temp;Humidity;BMP_temperature;BMP_pressure;BME280_temperature;BME280_humidity;BME280_pressure;Samples;Min_cycle;Max_cycle;Signal;HPM_P1;HPM_P2
2022/03/28 00:01:14;;;;;;;12.75;5.38;;;;;;;15.46;39.38;102415.06;5033990;28;20025;-64
2022/03/28 00:03:39;;;;;;;12.57;6.05;;;;;;;15.48;39.41;102421.19;5033888;28;20415;-64
2022/03/28 00:06:07;;;;;;;10.40;5.20;;;;;;;15.48;40.57;102420.31;5033765;28;20025;-65
2022/03/28 00:08:33;;;;;;;11.85;4.47;;;;;;;15.41;39.67;102419.06;5033993;28;20100;-64
2022/03/28 00:10:58;;;;;;;13.15;5.40;;;;;;;15.44;40.54;102419.66;5032781;28;20035;-64
2022/03/28 00:13:23;;;;;;;9.23;4.90;;;;;;;15.38;39.16;102417.44;5033830;28;20431;-64
2022/03/28 00:15:49;;;;;;;13.85;6.55;;;;;;;15.32;40.18;102409.00;5033771;28;20537;-64
2022/03/28 00:18:14;;;;;;;11.02;4.82;;;;;;;15.35;39.17;102417.72;5035297;28;20107;-64
2022/03/28 00:20:40;;;;;;;11.75;4.57;;;;;;;15.32;40.48;102409.00;5037888;28;20479;-64
2022/03/28 00:23:05;;;;;;;11.77;5.20;;;;;;;15.22;40.17;102395.34;5036256;28;20029;-65
2022/03/28 00:25:31;;;;;;;11.23;5.00;;;;;;;15.22;40.37;102398.03;5037516;28;20064;-64
2022/03/28 00:27:56;;;;;;;9.23;4.95;;;;;;;15.23;40.35;102399.78;5037606;28;20417;-64
2022/03/28 00:30:21;;;;;;;13.13;5.28;;;;;;;15.23;39.48;102393.50;5036298;28;20026;-64
2022/03/28 00:32:47;;;;;;;12.73;4.88;;;;;;;15.20;40.04;102388.34;5037466;28;20021;-64
2022/03/28 00:35:12;;;;;;;13.43;5.70;;;;;;;15.12;40.37;102380.88;5037532;28;20475;-64
2022/03/28 00:37:39;;;;;;;11.02;4.10;;;;;;;15.15;40.22;102388.72;5037303;28;20022;-64
2022/03/28 00:40:09;;;;;;;11.40;4.97;;;;;;;15.10;40.84;102380.13;5037519;28;20025;-64
2022/03/28 00:42:36;;;;;;;13.55;5.68;;;;;;;15.11;39.73;102380.00;5037247;28;20025;-64
2022/03/28 00:45:03;;;;;;;8.70;4.82;;;;;;;15.08;40.90;102380.25;5037372;28;20025;-64
2022/03/28 00:47:28;;;;;;;12.65;4.40;;;;;;;15.06;40.86;102376.81;5037052;28;20021;-64
2022/03/28 00:49:54;;;;;;;12.02;5.30;;;;;;;15.04;40.94;102375.22;5037495;28;20036;-64
2022/03/28 00:52:19;;;;;;;10.55;4.80;;;;;;;14.96;40.39;102359.59;5037246;28;20056;-64
2022/03/28 00:54:44;;;;;;;10.43;4.68;;;;;;;14.98;40.87;102367.59;5036033;28;20030;-64
2022/03/28 00:57:10;;;;;;;13.75;5.13;;;;;;;14.92;40.49;102352.75;5035916;28;20076;-65
2022/03/28 00:59:37;;;;;;;8.40;4.70;;;;;;;14.93;40.92;102359.88;5035564;28;20025;-65
2022/03/28 01:02:02;;;;;;;10.05;4.63;;;;;;;14.83;40.20;102347.19;5036889;28;20434;-64
2022/03/28 01:04:28;;;;;;;11.48;4.97;;;;;;;14.79;41.12;102340.34;5036756;28;20049;-64
2022/03/28 01:06:54;;;;;;;16.75;4.97;;;;;;;14.76;40.90;102340.56;5035539;28;20024;-64
2022/03/28 01:09:19;;;;;;;8.85;4.47;;;;;;;14.79;40.72;102351.13;5036977;28;20056;-64
2022/03/28 01:11:46;;;;;;;9.57;5.43;;;;;;;14.73;41.04;102354.28;5036778;28;20365;-64
2022/03/28 01:14:11;;;;;;;9.82;4.55;;;;;;;14.72;41.34;102344.47;5035458;28;20395;-64
2022/03/28 01:18:05;;;;;;;11.10;4.47;;;;;;;14.69;40.09;102348.25;5036120;28;20022;-64
2022/03/28 01:19:24;;;;;;;12.57;4.88;;;;;;;14.67;41.05;102342.13;5036342;28;20021;-64
2022/03/28 01:21:51;;;;;;;13.82;5.65;;;;;;;14.65;40.94;102343.25;5035048;28;20079;-64
2022/03/28 01:24:16;;;;;;;9.20;4.32;;;;;;;14.60;40.30;102326.56;5036076;28;20052;-64
2022/03/28 01:26:43;;;;;;;10.10;4.82;;;;;;;14.57;41.33;102327.66;5036132;28;20055;-64
2022/03/28 01:29:08;;;;;;;10.95;3.97;;;;;;;14.58;40.49;102322.13;5036002;28;20028;-64
2022/03/28 01:31:40;;;;;;;9.95;4.85;;;;;;;14.56;40.83;102326.78;5036212;28;20021;-64
2022/03/28 01:34:06;;;;;;;12.40;5.28;;;;;;;14.55;41.44;102326.88;5036351;28;20087;-64
2022/03/28 01:36:32;;;;;;;9.68;4.88;;;;;;;14.54;40.85;102331.41;5036292;28;20033;-64
2022/03/28 01:38:57;;;;;;;11.98;4.32;;;;;;;14.52;40.20;102321.72;5036409;28;20052;-63
2022/03/28 01:41:22;;;;;;;7.78;4.30;;;;;;;14.48;41.41;102313.03;5036174;28;20463;-64
2022/03/28 01:43:48;;;;;;;8.30;3.97;;;;;;;14.44;40.06;102313.38;5035947;28;20043;-64
2022/03/28 01:46:13;;;;;;;9.15;3.67;;;;;;;14.39;41.26;102311.03;5034741;28;20507;-63
2022/03/28 01:48:38;;;;;;;10.63;4.35;;;;;;;14.36;40.27;102319.38;5035854;28;20033;-64
2022/03/28 01:51:04;;;;;;;10.10;4.78;;;;;;;14.34;40.41;102313.25;5034737;28;20101;-64
2022/03/28 01:53:29;;;;;;;14.02;5.40;;;;;;;14.32;41.52;102304.38;5036193;28;20029;-63
2022/03/28 01:55:54;;;;;;;11.13;5.15;;;;;;;14.27;41.28;102311.94;5035977;28;20534;-64
2022/03/28 01:58:20;;;;;;;11.27;5.63;;;;;;;14.27;40.43;102311.94;5035807;28;20028;-63
2022/03/28 02:00:45;;;;;;;11.93;4.82;;;;;;;14.21;40.32;102304.31;5035913;28;20039;-63
2022/03/28 02:03:11;;;;;;;10.38;4.75;;;;;;;14.18;41.11;102304.53;5035527;28;20107;-65
2022/03/28 02:05:36;;;;;;;11.10;4.68;;;;;;;14.18;41.56;102315.31;5035557;28;20389;-63
2022/03/28 02:08:02;;;;;;;8.95;4.50;;;;;;;14.15;41.04;102312.88;5035182;28;20032;-64
2022/03/28 02:10:27;;;;;;;12.32;4.53;;;;;;;14.12;41.50;102312.25;5017800;28;20541;-63
2022/03/28 02:12:53;;;;;;;14.18;5.28;;;;;;;14.10;41.42;102315.03;5035339;28;20021;-64
2022/03/28 02:15:19;;;;;;;12.80;5.40;;;;;;;14.09;40.49;102313.34;5034052;28;20057;-64
2022/03/28 02:17:44;;;;;;;18.10;5.32;;;;;;;14.09;41.02;102312.47;5035372;28;20104;-64
2022/03/28 02:20:11;;;;;;;12.00;5.93;;;;;;;14.07;41.45;102309.88;5034102;28;20510;-64
2022/03/28 02:22:38;;;;;;;9.30;4.40;;;;;;;14.04;41.51;102307.44;5034285;28;20072;-63
2022/03/28 02:25:05;;;;;;;10.45;4.60;;;;;;;14.00;41.01;102305.94;5035382;28;20467;-64
2022/03/28 02:27:30;;;;;;;8.70;4.85;;;;;;;14.00;40.74;102305.94;5035523;28;20475;-63
2022/03/28 02:29:55;;;;;;;10.50;4.65;;;;;;;13.98;41.52;102302.50;5034033;28;20029;-63
2022/03/28 02:32:21;;;;;;;9.50;5.07;;;;;;;13.95;41.48;102305.44;5035111;28;20053;-63
2022/03/28 02:34:46;;;;;;;13.25;4.82;;;;;;;13.91;41.79;102299.41;5033865;28;20376;-64
2022/03/28 02:37:11;;;;;;;11.55;4.93;;;;;;;13.89;40.92;102289.72;5034935;28;20029;-63
2022/03/28 02:39:37;;;;;;;9.90;4.78;;;;;;;13.88;41.41;102288.00;5035022;28;20021;-64
2022/03/28 02:42:03;;;;;;;14.38;5.30;;;;;;;13.86;41.54;102279.19;5033837;28;20025;-63
2022/03/28 02:44:29;;;;;;;13.68;6.15;;;;;;;13.85;40.88;102282.84;5034916;28;20033;-63
2022/03/28 02:46:54;;;;;;;16.15;5.80;;;;;;;13.81;40.74;102275.97;5033727;28;20021;-63
2022/03/28 02:49:20;;;;;;;14.18;5.45;;;;;;;13.80;41.30;102276.94;5034515;28;20399;-63
2022/03/28 02:51:46;;;;;;;11.27;4.90;;;;;;;13.77;41.85;102269.94;5034438;28;20065;-63
2022/03/28 02:54:11;;;;;;;12.35;5.13;;;;;;;13.75;40.93;102273.72;5034793;28;20017;-64
2022/03/28 02:56:37;;;;;;;11.45;4.78;;;;;;;13.75;41.92;102265.66;5034674;28;20021;-64
2022/03/28 02:59:02;;;;;;;12.32;5.35;;;;;;;13.70;41.37;102254.38;5034717;28;20030;-63
2022/03/28 03:01:28;;;;;;;10.80;5.53;;;;;;;13.72;41.51;102255.09;5033429;28;20025;-63
2022/03/28 03:03:53;;;;;;;12.18;5.22;;;;;;;13.71;40.94;102250.69;5034436;28;20095;-63
2022/03/28 03:06:18;;;;;;;14.77;5.70;;;;;;;13.69;41.53;102249.94;5034434;28;20037;-63
2022/03/28 03:08:44;;;;;;;12.68;5.13;;;;;;;13.68;40.80;102256.31;5034301;28;20033;-63
2022/03/28 03:11:09;;;;;;;13.52;5.97;;;;;;;13.64;41.95;102252.13;5034505;28;20048;-63
2022/03/28 03:13:36;;;;;;;12.88;5.32;;;;;;;13.60;41.37;102242.53;5034241;28;20079;-63
2022/03/28 03:16:01;;;;;;;16.83;5.80;;;;;;;13.62;41.92;102248.69;5034210;28;20021;-63
2022/03/28 03:18:28;;;;;;;11.07;6.22;;;;;;;13.63;41.14;102245.00;5034390;28;20041;-63
2022/03/28 03:20:53;;;;;;;16.70;5.50;;;;;;;13.62;42.08;102237.94;5034230;28;20108;-63
2022/03/28 03:23:18;;;;;;;13.25;5.63;;;;;;;13.58;41.93;102236.41;5034098;28;20061;-63
2022/03/28 03:25:44;;;;;;;13.95;5.53;;;;;;;13.58;41.92;102231.03;5034249;28;20468;-63
2022/03/28 03:28:09;;;;;;;16.00;6.05;;;;;;;13.56;41.62;102233.00;5034099;28;20116;-63
2022/03/28 03:30:35;;;;;;;13.23;5.78;;;;;;;13.50;42.08;102230.75;5034608;28;20023;-63
2022/03/28 03:33:00;;;;;;;13.98;6.28;;;;;;;13.52;41.43;102236.88;5032354;28;20021;-63
2022/03/28 03:35:26;;;;;;;18.50;5.88;;;;;;;13.47;42.00;102234.53;5034148;28;20025;-63
2022/03/28 03:37:51;;;;;;;11.27;5.70;;;;;;;13.37;41.60;102217.34;5032908;28;20452;-63
2022/03/28 03:40:16;;;;;;;15.05;5.13;;;;;;;13.41;42.18;102225.06;5034197;28;20036;-63
2022/03/28 03:42:42;;;;;;;10.45;4.55;;;;;;;13.38;42.30;102230.69;5034012;28;20029;-64
2022/03/28 03:45:08;;;;;;;13.93;5.32;;;;;;;13.37;42.23;102220.88;5032874;28;20029;-63
2022/03/28 03:47:34;;;;;;;17.70;6.40;;;;;;;13.32;42.04;102219.50;5033507;28;20032;-63
2022/03/28 03:49:59;;;;;;;13.32;5.85;;;;;;;13.24;41.43;102201.25;5033975;28;20029;-63
2022/03/28 03:52:25;;;;;;;12.95;6.25;;;;;;;13.31;41.07;102218.66;5032281;28;20068;-63
2022/03/28 03:54:50;;;;;;;16.25;6.93;;;;;;;13.34;41.56;102221.09;5033881;28;20468;-63
2022/03/28 03:57:15;;;;;;;12.57;6.32;;;;;;;13.30;41.39;102214.25;5033503;28;20060;-64
2022/03/28 03:59:41;;;;;;;14.88;6.45;;;;;;;13.30;41.79;102216.94;5033893;28;20105;-63
2022/03/28 04:02:06;;;;;;;12.77;4.93;;;;;;;13.27;41.63;102211.78;5033983;28;20041;-63
2022/03/28 04:04:31;;;;;;;9.73;5.07;;;;;;;13.24;41.71;102211.13;5032234;28;20049;-63
2022/03/28 04:06:57;;;;;;;13.80;5.38;;;;;;;13.19;41.24;102207.94;5033546;28;20420;-63
2022/03/28 04:09:22;;;;;;;13.25;4.63;;;;;;;13.13;41.40;102203.00;5033834;28;20021;-63
2022/03/28 04:11:48;;;;;;;11.15;4.40;;;;;;;13.08;41.46;102197.09;5033726;28;20035;-64
2022/03/28 04:14:14;;;;;;;12.98;5.03;;;;;;;13.10;41.39;102203.22;5033434;28;20067;-63
2022/03/28 04:16:39;;;;;;;11.82;5.03;;;;;;;13.11;42.49;102215.69;5033143;28;20498;-63
2022/03/28 04:19:04;;;;;;;11.02;5.13;;;;;;;13.09;41.48;102213.09;5033564;28;20030;-64
2022/03/28 04:21:30;;;;;;;17.05;5.18;;;;;;;13.04;42.09;102204.47;5033509;28;20070;-64
2022/03/28 04:23:55;;;;;;;14.35;5.20;;;;;;;13.04;41.87;102204.47;5033428;28;20030;-63
2022/03/28 04:26:20;;;;;;;12.57;5.40;;;;;;;13.00;41.68;102211.06;5033377;28;20033;-63
2022/03/28 04:28:46;;;;;;;14.93;5.55;;;;;;;13.01;41.91;102210.09;5033462;28;20025;-64
2022/03/28 04:31:11;;;;;;;28.52;6.10;;;;;;;12.94;41.79;102208.81;5033714;28;20022;-63
2022/03/28 04:33:37;;;;;;;12.23;5.80;;;;;;;12.99;42.43;102212.03;5032166;28;20112;-63
2022/03/28 04:36:03;;;;;;;12.50;5.78;;;;;;;13.00;41.73;102208.38;5033346;28;20037;-63
2022/03/28 04:38:28;;;;;;;10.75;5.75;;;;;;;12.98;42.07;102210.31;5033570;28;20368;-63
2022/03/28 04:40:54;;;;;;;13.77;6.45;;;;;;;12.95;41.53;102202.47;5033269;28;20025;-64
2022/03/28 04:43:20;;;;;;;13.00;5.18;;;;;;;12.92;42.29;102200.00;5033307;28;20025;-64
2022/03/28 04:45:46;;;;;;;15.35;6.68;;;;;;;12.92;41.85;102200.00;5032137;28;20017;-63
2022/03/28 04:48:11;;;;;;;12.55;5.63;;;;;;;12.91;41.89;102202.78;5033214;28;20033;-64
2022/03/28 04:50:37;;;;;;;13.20;5.88;;;;;;;12.90;41.97;102199.25;5033716;28;20036;-63
2022/03/28 04:53:02;;;;;;;16.77;7.63;;;;;;;12.87;42.52;102202.16;5033072;28;20108;-63
2022/03/28 04:55:28;;;;;;;11.98;5.63;;;;;;;12.88;41.69;102206.56;5032843;28;20028;-63
2022/03/28 04:57:53;;;;;;;11.65;6.40;;;;;;;12.86;41.67;102200.44;5032818;28;20025;-64
2022/03/28 05:00:19;;;;;;;13.77;6.20;;;;;;;12.78;41.81;102198.31;5033056;28;20064;-63
2022/03/28 05:02:45;;;;;;;17.35;5.75;;;;;;;12.75;41.88;102203.03;5032891;28;20025;-63
2022/03/28 05:05:10;;;;;;;13.73;6.05;;;;;;;12.77;42.24;102206.47;5033968;28;20494;-63
2022/03/28 05:07:36;;;;;;;10.52;4.65;;;;;;;12.71;42.09;102196.16;5036619;28;20483;-63
2022/03/28 05:10:02;;;;;;;14.25;6.00;;;;;;;12.72;41.65;102205.94;5036864;28;20028;-64
2022/03/28 05:12:28;;;;;;;15.00;6.75;;;;;;;12.65;42.20;102192.06;5036533;28;20032;-63
2022/03/28 05:14:54;;;;;;;16.05;5.70;;;;;;;12.69;41.97;102214.22;5036440;28;20392;-63
2022/03/28 05:17:21;;;;;;;10.02;5.90;;;;;;;12.64;42.62;102192.19;5036336;28;20025;-63
2022/03/28 05:19:47;;;;;;;16.67;6.05;;;;;;;12.67;42.42;102187.44;5035077;28;20056;-64
2022/03/28 05:22:12;;;;;;;15.40;5.72;;;;;;;12.68;42.45;102196.38;5036565;28;20064;-63
2022/03/28 05:24:37;;;;;;;17.25;5.88;;;;;;;12.67;41.76;102194.66;5036459;28;20025;-63
2022/03/28 05:27:03;;;;;;;11.00;5.25;;;;;;;12.67;42.31;102194.66;5036723;28;20495;-63
2022/03/28 05:29:28;;;;;;;13.02;5.70;;;;;;;12.67;42.10;102200.03;5036279;28;20472;-63
2022/03/28 05:31:54;;;;;;;14.25;5.70;;;;;;;12.66;41.90;102193.81;5036409;28;20096;-63
2022/03/28 05:34:19;;;;;;;17.25;5.60;;;;;;;12.67;42.42;102197.34;5036267;28;20043;-63
2022/03/28 05:36:45;;;;;;;9.70;5.90;;;;;;;12.66;42.02;102199.19;5036141;28;20472;-63
2022/03/28 05:39:12;;;;;;;15.15;6.55;;;;;;;12.61;42.13;102184.34;5036137;28;20021;-63
2022/03/28 05:41:37;;;;;;;13.15;5.60;;;;;;;12.71;41.89;102196.16;5035044;28;20087;-64
2022/03/28 05:44:03;;;;;;;11.43;5.45;;;;;;;12.73;42.06;102200.44;5035913;28;20026;-65
2022/03/28 05:46:28;;;;;;;23.00;7.03;;;;;;;12.72;41.68;102193.38;5034600;28;20043;-65
2022/03/28 05:48:54;;;;;;;10.98;4.35;;;;;;;12.75;42.47;102194.97;5035866;28;20071;-65
2022/03/28 05:51:19;;;;;;;14.05;5.97;;;;;;;12.79;42.36;102196.47;5035920;28;20404;-65
2022/03/28 05:53:45;;;;;;;12.52;5.13;;;;;;;12.80;42.00;102191.00;5034589;28;20029;-65
2022/03/28 05:56:10;;;;;;;11.05;5.43;;;;;;;12.86;42.16;102192.38;5035578;28;20037;-65
2022/03/28 05:58:36;;;;;;;12.68;6.07;;;;;;;12.91;42.45;102198.28;5035618;28;20025;-64
2022/03/28 06:01:01;;;;;;;15.90;6.18;;;;;;;12.96;42.45;102188.03;5035844;28;20506;-64
2022/03/28 06:03:27;;;;;;;12.75;5.38;;;;;;;13.03;41.52;102192.03;5035580;28;20102;-64
2022/03/28 06:05:52;;;;;;;15.90;6.38;;;;;;;13.10;41.90;102187.06;5035642;28;20372;-65
2022/03/28 06:08:18;;;;;;;16.60;6.65;;;;;;;13.22;41.96;102189.72;5034673;28;20057;-64
2022/03/28 06:10:43;;;;;;;26.38;6.47;;;;;;;13.33;42.47;102195.19;5035377;28;20028;-64
2022/03/28 06:13:08;;;;;;;15.93;7.63;;;;;;;13.40;42.30;102182.09;5034615;28;20032;-65
2022/03/28 06:15:36;;;;;;;16.98;7.53;;;;;;;13.55;41.84;102189.06;5035177;28;20035;-64
2022/03/28 06:18:04;;;;;;;18.42;6.93;;;;;;;13.72;41.99;102193.16;5035378;28;20546;-65
2022/03/28 06:20:29;;;;;;;17.13;7.00;;;;;;;13.86;41.68;102195.69;5034170;28;20061;-65
2022/03/28 06:22:54;;;;;;;17.30;6.25;;;;;;;13.99;41.58;102197.31;5035379;28;20099;-64
2022/03/28 06:25:20;;;;;;;15.18;6.40;;;;;;;14.13;41.31;102196.25;5034975;28;20434;-65
2022/03/28 06:27:45;;;;;;;15.25;6.03;;;;;;;14.28;41.93;102194.22;5035179;28;20024;-65
2022/03/28 06:30:11;;;;;;;11.85;6.85;;;;;;;14.41;41.83;102189.59;5033976;28;20037;-64
2022/03/28 06:32:38;;;;;;;19.95;6.75;;;;;;;14.57;42.65;102196.34;5035096;28;20121;-65
2022/03/28 06:35:05;;;;;;;18.92;7.75;;;;;;;14.73;41.53;102195.16;5037845;28;20032;-65
2022/03/28 06:37:30;;;;;;;20.85;7.63;;;;;;;14.92;42.10;102189.97;5055170;28;20470;-65
2022/03/28 06:39:56;;;;;;;20.70;7.43;;;;;;;15.09;41.57;102184.09;5053896;28;20096;-65
2022/03/28 06:42:21;;;;;;;15.13;7.28;;;;;;;15.26;42.45;102188.97;5055056;28;20049;-66
2022/03/28 06:44:46;;;;;;;19.67;7.38;;;;;;;15.45;42.56;102189.16;5054956;28;20036;-65
2022/03/28 06:47:12;;;;;;;12.82;7.10;;;;;;;15.62;42.02;102180.53;5055060;28;20035;-65
2022/03/28 06:49:37;;;;;;;23.35;7.65;;;;;;;15.80;41.61;102182.69;5037142;28;20060;-65
2022/03/28 06:52:03;;;;;;;18.73;7.53;;;;;;;15.95;41.87;102175.97;5055095;28;20024;-65
2022/03/28 06:54:29;;;;;;;16.20;7.80;;;;;;;16.13;41.35;102169.00;5045569;28;20030;-66
2022/03/28 06:56:54;;;;;;;20.30;8.25;;;;;;;16.28;41.52;102167.66;5034782;28;20033;-65
2022/03/28 06:59:23;;;;;;;18.58;8.55;;;;;;;16.42;41.13;102156.47;5033634;28;20514;-65
2022/03/28 07:01:49;;;;;;;20.55;8.48;;;;;;;16.61;42.60;102169.31;5035178;28;20047;-66
2022/03/28 07:04:15;;;;;;;21.10;7.97;;;;;;;16.79;41.78;102179.34;5034578;28;20076;-65
2022/03/28 07:06:40;;;;;;;24.85;9.30;;;;;;;16.99;42.24;102163.16;5033575;28;20502;-65
2022/03/28 07:09:05;;;;;;;24.77;9.20;;;;;;;17.17;41.21;102156.94;5034534;28;20029;-65
2022/03/28 07:11:34;;;;;;;24.38;8.73;;;;;;;17.39;41.17;102172.09;5034628;28;20029;-66
2022/03/28 07:13:59;;;;;;;21.00;8.68;;;;;;;17.60;41.50;102163.88;5033495;28;20539;-66
2022/03/28 07:16:25;;;;;;;21.45;9.18;;;;;;;17.82;40.92;102158.16;5034716;28;20151;-66
2022/03/28 07:18:50;;;;;;;24.98;9.90;;;;;;;18.01;40.79;102148.16;5034564;28;20029;-66
2022/03/28 07:21:16;;;;;;;19.90;8.20;;;;;;;18.22;40.82;102148.00;5034820;28;20075;-66
2022/03/28 07:23:42;;;;;;;21.17;9.45;;;;;;;18.37;41.11;102153.81;5034619;28;20500;-66
2022/03/28 07:26:07;;;;;;;24.42;8.75;;;;;;;18.57;40.36;102150.91;5034787;28;20383;-66
2022/03/28 07:28:35;;;;;;;26.10;9.68;;;;;;;18.75;40.83;102133.81;5032869;28;20036;-66
2022/03/28 07:31:01;;;;;;;22.85;9.18;;;;;;;18.94;40.45;102126.44;5033270;28;20025;-66
2022/03/28 07:33:26;;;;;;;25.00;9.55;;;;;;;19.16;40.42;102138.72;5034009;28;20018;-66
2022/03/28 07:35:52;;;;;;;20.17;9.60;;;;;;;19.36;39.95;102128.59;5033478;28;20025;-66
2022/03/28 07:38:17;;;;;;;24.83;10.70;;;;;;;19.56;40.54;102122.03;5035181;28;20067;-66
2022/03/28 07:40:43;;;;;;;23.42;10.40;;;;;;;19.74;39.97;102115.56;5052660;28;20028;-66
2022/03/28 07:43:09;;;;;;;26.85;10.73;;;;;;;19.93;39.88;102125.41;5054685;28;20028;-66
2022/03/28 07:45:35;;;;;;;33.40;12.30;;;;;;;20.15;39.68;102130.34;5054494;28;20386;-66
2022/03/28 07:48:02;;;;;;;22.40;10.93;;;;;;;20.38;39.29;102121.69;5054365;28;20027;-65
2022/03/28 07:50:27;;;;;;;22.98;11.25;;;;;;;20.63;39.67;102118.06;5053421;28;20391;-66
2022/03/28 07:52:52;;;;;;;29.15;11.85;;;;;;;20.83;39.13;102116.75;5052617;28;20062;-66
2022/03/28 07:55:18;;;;;;;26.17;11.45;;;;;;;21.05;38.99;102112.59;5052526;28;20021;-65
2022/03/28 07:57:44;;;;;;;31.42;12.15;;;;;;;21.28;39.30;102108.25;5054071;28;20463;-65
2022/03/28 08:00:12;;;;;;;33.10;13.43;;;;;;;21.52;39.02;102110.16;5053797;28;20032;-65
2022/03/28 08:02:38;;;;;;;27.85;11.80;;;;;;;21.71;39.06;102102.50;5053598;28;20025;-65
2022/03/28 08:05:05;;;;;;;32.45;14.93;;;;;;;21.96;38.99;102103.38;5053132;28;20414;-65
2022/03/28 08:07:31;;;;;;;33.22;13.98;;;;;;;22.14;38.31;102095.81;5053247;28;20024;-66
2022/03/28 08:09:56;;;;;;;30.92;14.48;;;;;;;22.38;38.62;102092.19;5053615;28;20057;-66
2022/03/28 08:12:22;;;;;;;33.22;14.13;;;;;;;22.58;38.64;102090.78;5053122;28;20017;-65
2022/03/28 08:14:49;;;;;;;33.05;15.23;;;;;;;22.80;37.74;102092.75;5052482;28;20021;-65
2022/03/28 08:17:16;;;;;;;37.40;15.07;;;;;;;23.00;38.23;102087.69;5053277;28;20383;-65
2022/03/28 08:19:42;;;;;;;41.92;16.90;;;;;;;23.19;37.81;102088.09;5053079;28;20100;-65
2022/03/28 08:22:07;;;;;;;34.97;15.30;;;;;;;23.38;37.26;102086.78;5053087;28;20111;-65
2022/03/28 08:24:32;;;;;;;34.72;15.10;;;;;;;23.52;38.11;102082.41;5053152;28;20052;-66
2022/03/28 08:26:58;;;;;;;34.17;14.93;;;;;;;23.69;37.12;102082.09;5052940;28;20025;-65
2022/03/28 08:29:23;;;;;;;36.00;15.48;;;;;;;23.87;36.80;102080.94;5053055;28;20083;-65
2022/03/28 08:31:49;;;;;;;34.53;15.35;;;;;;;24.04;37.18;102076.97;5052971;28;20029;-65
2022/03/28 08:34:14;;;;;;;31.70;15.52;;;;;;;24.21;37.11;102076.66;5053101;28;20029;-65
2022/03/28 08:36:40;;;;;;;34.92;17.73;;;;;;;24.38;37.30;102071.84;5052947;28;20033;-65
2022/03/28 08:39:05;;;;;;;38.28;16.33;;;;;;;24.51;37.25;102052.00;5052784;28;20028;-65
2022/03/28 08:41:32;;;;;;;36.13;16.88;;;;;;;24.69;36.17;102069.75;5056145;28;20454;-65
2022/03/28 08:43:57;;;;;;;38.95;16.85;;;;;;;24.76;36.55;102062.44;5055825;28;20082;-65
2022/03/28 08:46:24;;;;;;;39.00;17.17;;;;;;;24.85;36.60;102055.84;5056806;28;20413;-66
2022/03/28 08:48:50;;;;;;;37.85;15.98;;;;;;;25.03;36.32;102068.28;5056547;28;20053;-67
2022/03/28 08:51:17;;;;;;;33.92;15.70;;;;;;;25.16;35.98;102058.31;5055247;28;20029;-65
2022/03/28 08:53:44;;;;;;;28.92;14.25;;;;;;;25.37;36.09;102061.06;5055247;28;20021;-65
2022/03/28 08:56:09;;;;;;;37.20;16.08;;;;;;;25.53;35.84;102059.97;5055288;28;20383;-65
2022/03/28 08:58:34;;;;;;;43.17;15.75;;;;;;;25.73;35.69;102060.16;5056450;28;20032;-65
2022/03/28 09:01:02;;;;;;;31.80;15.43;;;;;;;25.88;35.36;102042.53;5056393;28;20440;-65
2022/03/28 09:03:42;;;;;;;30.35;15.57;;;;;;;26.05;35.40;102048.56;5056183;28;20446;-65
2022/03/28 09:06:42;;;;;;;28.77;15.45;;;;;;;26.15;34.90;102048.25;5054883;28;20040;-65
2022/03/28 09:09:19;;;;;;;29.65;13.95;;;;;;;26.17;34.40;102038.75;5038715;28;20037;-66
2022/03/28 09:11:58;;;;;;;29.77;15.60;;;;;;;26.25;34.50;102043.22;5045239;28;20029;-65
2022/03/28 09:14:33;;;;;;;33.65;15.40;;;;;;;26.34;34.51;102036.53;5036457;28;20051;-66
2022/03/28 09:17:06;;;;;;;35.28;15.77;;;;;;;26.49;34.86;102035.31;5036143;28;20022;-66
2022/03/28 09:19:45;;;;;;;33.67;15.35;;;;;;;26.65;35.01;102036.88;5036156;28;20501;-66
2022/03/28 09:22:33;;;;;;;33.90;16.33;;;;;;;26.83;34.61;102031.69;5036118;28;20033;-66
2022/03/28 09:25:00;;;;;;;32.20;15.60;;;;;;;27.05;34.29;102024.97;5034793;28;20075;-65
2022/03/28 09:27:31;;;;;;;31.52;15.02;;;;;;;27.27;33.72;102030.31;5034624;28;20101;-66
2022/03/28 09:30:02;;;;;;;30.42;15.55;;;;;;;27.49;34.45;102026.34;5035916;28;20018;-66
2022/03/28 09:32:35;;;;;;;32.00;14.43;;;;;;;27.64;33.14;102018.72;5035891;28;20058;-66
2022/03/28 09:35:04;;;;;;;32.72;16.15;;;;;;;27.83;33.62;102015.13;5035823;28;20025;-63
2022/03/28 09:37:30;;;;;;;35.55;15.45;;;;;;;27.98;33.50;102007.44;5035904;28;20487;-63
2022/03/28 09:39:56;;;;;;;32.78;14.27;;;;;;;28.19;32.87;102010.00;5034776;28;20060;-63
2022/03/28 09:42:22;;;;;;;33.22;15.23;;;;;;;28.41;32.63;102004.19;5035707;28;20029;-63
2022/03/28 09:44:50;;;;;;;38.35;16.98;;;;;;;28.67;32.81;101995.84;5035686;28;20021;-63
2022/03/28 09:47:20;;;;;;;33.25;15.35;;;;;;;29.12;32.37;102002.97;5035862;28;20028;-63
2022/03/28 09:49:47;;;;;;;31.92;16.13;;;;;;;29.77;31.94;101996.13;5035883;28;20021;-63
2022/03/28 09:52:22;;;;;;;30.52;15.77;;;;;;;31.12;30.14;101995.78;5035242;28;20551;-63
2022/03/28 09:54:56;;;;;;;29.95;15.98;;;;;;;32.61;28.61;101981.34;5035371;28;20108;-64
2022/03/28 09:57:24;;;;;;;30.55;16.52;;;;;;;32.17;29.02;101982.03;5035669;28;20030;-64
2022/03/28 09:59:51;;;;;;;34.00;17.00;;;;;;;31.83;29.50;101977.38;5035679;28;20037;-63
2022/03/28 10:02:20;;;;;;;30.60;16.27;;;;;;;31.71;29.42;101980.94;5035272;28;20030;-63
2022/03/28 10:04:48;;;;;;;29.05;15.32;;;;;;;31.71;29.61;101977.34;5035137;28;20411;-63
2022/03/28 10:07:13;;;;;;;34.58;16.20;;;;;;;31.84;29.27;101976.25;5035159;28;20074;-63
2022/03/28 10:09:39;;;;;;;32.22;16.77;;;;;;;32.00;28.84;101978.28;5035144;28;20033;-63
2022/03/28 10:12:06;;;;;;;34.47;16.73;;;;;;;32.18;28.90;101979.03;5033987;28;20032;-63
2022/03/28 10:14:32;;;;;;;31.98;17.63;;;;;;;32.37;28.58;101971.38;5035105;28;20029;-64
2022/03/28 10:17:00;;;;;;;34.90;17.75;;;;;;;32.51;28.26;101969.16;5035148;28;20071;-64
2022/03/28 10:19:26;;;;;;;33.63;16.65;;;;;;;32.73;27.97;101965.50;5035333;28;20034;-64
2022/03/28 10:21:51;;;;;;;31.52;17.55;;;;;;;32.98;27.87;101967.03;5034833;28;20463;-64
2022/03/28 10:24:22;;;;;;;36.42;18.20;;;;;;;33.20;28.65;101965.25;5033670;28;20126;-63
2022/03/28 10:26:52;;;;;;;36.67;18.15;;;;;;;33.39;27.68;101956.41;5033874;28;20068;-64
2022/03/28 10:29:22;;;;;;;32.70;17.83;;;;;;;33.52;26.90;101949.69;5033932;28;20109;-64
2022/03/28 10:31:59;;;;;;;34.17;18.00;;;;;;;33.70;26.76;101952.22;5033561;28;20116;-64
2022/03/28 10:34:43;;;;;;;31.05;17.15;;;;;;;33.80;26.72;101944.03;5034710;28;20076;-64
2022/03/28 10:37:30;;;;;;;33.83;17.05;;;;;;;33.96;26.51;101948.72;5034588;28;20040;-65
2022/03/28 10:40:23;;;;;;;35.38;17.08;;;;;;;34.10;26.56;101948.34;5034599;28;20029;-64
2022/03/28 10:43:03;;;;;;;29.80;17.33;;;;;;;34.23;27.26;101937.69;5034531;28;20120;-64
2022/03/28 10:45:44;;;;;;;35.17;16.48;;;;;;;34.38;26.68;101937.03;5034584;28;20075;-64
2022/03/28 10:48:10;;;;;;;27.88;17.10;;;;;;;34.47;26.20;101938.25;5034479;28;20057;-64
2022/03/28 10:50:43;;;;;;;31.63;16.60;;;;;;;34.59;26.32;101930.63;5034963;28;20056;-64
2022/03/28 10:53:13;;;;;;;35.15;17.77;;;;;;;34.67;25.60;101938.53;5033155;28;20047;-64
2022/03/28 10:55:43;;;;;;;31.35;17.33;;;;;;;34.69;25.64;101930.72;5034182;28;20029;-64
2022/03/28 10:58:16;;;;;;;29.02;17.67;;;;;;;34.72;25.21;101926.59;5032974;28;20063;-64
2022/03/28 11:01:12;;;;;;;33.50;17.63;;;;;;;34.83;26.12;101923.63;5034461;28;20053;-64
2022/03/28 11:03:44;;;;;;;26.15;15.55;;;;;;;34.90;25.40;101918.69;5031707;28;20404;-64
2022/03/28 11:06:09;;;;;;;;;;;;;;;34.95;26.24;101924.28;5034448;28;20429;-64
2022/03/28 11:08:37;;;;;;;26.52;15.48;;;;;;;34.96;25.81;101914.84;5032753;28;19952;-64
2022/03/28 11:11:16;;;;;;;25.40;14.95;;;;;;;35.00;25.61;101909.59;5034029;28;20025;-64
2022/03/28 11:13:42;;;;;;;24.88;14.68;;;;;;;35.05;24.93;101918.84;5033971;28;20025;-64